createdAt,value
2019-06-08T00:02:23.539Z,100634.34
2019-06-08T00:05:31.045Z,100643.64
2019-06-08T00:08:38.355Z,100641.05
2019-06-08T00:11:45.768Z,100647.54
2019-06-08T00:15:02.600Z,100682.38
2019-06-08T00:18:19.483Z,100688.13
2019-06-08T00:21:38.152Z,100703.84
2019-06-08T00:24:55.165Z,100688.61
2019-06-08T00:28:11.872Z,100694.99
2019-06-08T00:31:28.670Z,100695.59
2019-06-08T00:34:54.349Z,100681.43
2019-06-08T00:38:01.696Z,100672.45
2019-06-08T00:41:20.251Z,100669.73
2019-06-08T00:44:38.165Z,100682.95
2019-06-08T00:47:48.008Z,100678.60
2019-06-08T00:51:03.947Z,100673.85
2019-06-08T00:54:21.526Z,100677.98
2019-06-08T00:57:30.186Z,100688.50
2019-06-08T01:00:37.484Z,100678.92
2019-06-08T01:03:45.148Z,100693.20
2019-06-08T01:06:52.641Z,100692.49
2019-06-08T01:10:09.908Z,100686.36
2019-06-08T01:13:18.746Z,100673.48
2019-06-08T01:16:27.009Z,100659.33
2019-06-08T01:19:43.810Z,100658.63
2019-06-08T01:23:02.599Z,100670.64
2019-06-08T01:26:19.790Z,100666.63
2019-06-08T01:29:28.316Z,100686.17
2019-06-08T01:32:44.992Z,100672.14
2019-06-08T01:36:04.682Z,100686.64
2019-06-08T01:39:32.429Z,100689.96
2019-06-08T01:42:49.910Z,100686.19
2019-06-08T01:46:06.714Z,100669.18
2019-06-08T01:49:24.019Z,100668.94
2019-06-08T01:52:31.749Z,100660.30
2019-06-08T01:55:40.426Z,100607.91
2019-06-08T01:58:47.877Z,100584.81
2019-06-08T02:01:55.241Z,100611.92
2019-06-08T02:05:02.683Z,100635.59
2019-06-08T02:08:19.580Z,100690.05
2019-06-08T02:11:36.265Z,100687.30
2019-06-08T02:14:42.883Z,100674.75
2019-06-08T02:17:49.128Z,100667.20
2019-06-08T02:21:05.957Z,100630.17
2019-06-08T02:24:22.854Z,100669.97
2019-06-08T02:27:39.752Z,100690.92
2019-06-08T02:30:56.438Z,100696.64
2019-06-08T02:34:19.123Z,100704.47
2019-06-08T02:37:37.694Z,100705.88
2019-06-08T02:40:54.382Z,100694.47
2019-06-08T02:44:11.056Z,100697.19
2019-06-08T02:47:28.420Z,100709.22
2019-06-08T02:50:53.083Z,100716.88
2019-06-08T02:54:01.721Z,100716.88
2019-06-08T02:57:18.643Z,100721.95
2019-06-08T03:00:39.465Z,100709.03
2019-06-08T03:03:47.045Z,100706.41
2019-06-08T03:07:04.726Z,100707.02
2019-06-08T03:10:12.330Z,100711.25
2019-06-08T03:13:22.177Z,100711.47
2019-06-08T03:16:31.207Z,100707.05
2019-06-08T03:19:40.096Z,100707.05
2019-06-08T03:22:59.126Z,100712.92
2019-06-08T03:26:06.486Z,100714.33
2019-06-08T03:29:27.707Z,100708.69
2019-06-08T03:32:39.871Z,100710.48
2019-06-08T03:35:55.783Z,100696.62
2019-06-08T03:38:53.264Z,100681.63
2019-06-08T03:42:00.683Z,100686.12
2019-06-08T03:45:08.298Z,100704.16
2019-06-08T03:48:27.652Z,100692.89
2019-06-08T03:51:37.742Z,100712.29
2019-06-08T03:54:55.884Z,100703.88
2019-06-08T03:58:21.053Z,100694.50
2019-06-08T04:01:28.339Z,100667.84
2019-06-08T04:04:46.926Z,100686.48
2019-06-08T04:07:54.289Z,100681.46
2019-06-08T04:11:19.533Z,100678.66
2019-06-08T04:14:26.791Z,100701.42
2019-06-08T04:17:44.128Z,100693.45
2019-06-08T04:20:51.776Z,100711.52
2019-06-08T04:23:59.206Z,100711.98
2019-06-08T04:27:06.665Z,100708.65
2019-06-08T04:30:29.560Z,100697.80
2019-06-08T04:33:46.777Z,100688.60
2019-06-08T04:36:54.402Z,100694.06
2019-06-08T04:40:00.665Z,100703.58
2019-06-08T04:43:17.791Z,100732.93
2019-06-08T04:46:38.221Z,100739.65
2019-06-08T04:49:47.148Z,100740.38
2019-06-08T04:52:54.434Z,100749.37
2019-06-08T04:56:02.073Z,100765.07
2019-06-08T04:59:09.334Z,100778.91
2019-06-08T05:02:28.509Z,100790.47
2019-06-08T05:05:35.801Z,100786.44
2019-06-08T05:08:54.458Z,100791.02
2019-06-08T05:12:01.631Z,100780.43
2019-06-08T05:15:09.451Z,100780.30
2019-06-08T05:18:16.849Z,100772.94
2019-06-08T05:21:23.013Z,100769.64
2019-06-08T05:24:30.471Z,100766.25
2019-06-08T05:27:39.261Z,100757.02
2019-06-08T05:30:58.568Z,100748.18
2019-06-08T05:34:23.339Z,100769.95
2019-06-08T05:37:30.651Z,100781.05
2019-06-08T05:40:55.708Z,100795.93
2019-06-08T05:44:03.194Z,100815.84
2019-06-08T05:47:22.254Z,100810.83
2019-06-08T05:50:29.477Z,100818.20
2019-06-08T05:53:55.142Z,100806.48
2019-06-08T05:57:02.477Z,100793.36
2019-06-08T06:00:21.856Z,100773.34
2019-06-08T06:03:42.283Z,100762.72
2019-06-08T06:06:50.891Z,100770.52
2019-06-08T06:09:58.454Z,100791.66
2019-06-08T06:13:05.725Z,100813.70
2019-06-08T06:16:12.995Z,100825.78
2019-06-08T06:19:19.590Z,100833.44
2019-06-08T06:22:27.456Z,100831.02
2019-06-08T06:25:34.702Z,100830.69
2019-06-08T06:28:43.244Z,100846.70
2019-06-08T06:31:51.947Z,100843.64
2019-06-08T06:34:59.492Z,100848.48
2019-06-08T06:38:06.935Z,100852.55
2019-06-08T06:41:14.299Z,100849.27
2019-06-08T06:44:39.515Z,100839.03
2019-06-08T06:47:58.381Z,100847.69
2019-06-08T06:51:26.615Z,100844.92
2019-06-08T06:54:44.779Z,100847.29
2019-06-08T06:58:12.514Z,100842.23
2019-06-08T07:01:20.108Z,100849.86
2019-06-08T07:04:27.507Z,100847.45
2019-06-08T07:07:35.151Z,100858.58
2019-06-08T07:10:42.545Z,100852.27
2019-06-08T07:14:04.495Z,100872.13
2019-06-08T07:17:17.633Z,100872.13
2019-06-08T07:20:43.456Z,100879.02
2019-06-08T07:24:09.138Z,100866.28
2019-06-08T07:27:16.437Z,100876.19
2019-06-08T07:30:35.699Z,100870.80
2019-06-08T07:33:55.665Z,100879.80
2019-06-08T07:37:02.967Z,100868.59
2019-06-08T07:40:10.249Z,100871.70
2019-06-08T07:43:17.616Z,100877.36
2019-06-08T07:46:25.069Z,100868.77
2019-06-08T07:49:32.338Z,100888.06
2019-06-08T07:52:39.538Z,100896.45
2019-06-08T07:55:47.273Z,100891.03
2019-06-08T07:58:57.048Z,100905.36
2019-06-08T08:02:04.607Z,100900.76
2019-06-08T08:05:24.252Z,100897.31
2019-06-08T08:08:31.611Z,100912.55
2019-06-08T08:12:12.315Z,100919.77
2019-06-08T08:15:20.238Z,100919.78
2019-06-08T08:18:27.127Z,100927.56
2019-06-08T08:21:34.662Z,100922.59
2019-06-08T08:24:42.133Z,100929.21
2019-06-08T08:27:50.711Z,100931.61
2019-06-08T08:31:18.400Z,100929.69
2019-06-08T08:34:42.739Z,100925.56
2019-06-08T08:38:04.421Z,100929.34
2019-06-08T08:41:22.375Z,100936.19
2019-06-08T08:44:42.080Z,100928.52
2019-06-08T08:47:50.734Z,100930.74
2019-06-08T08:51:17.961Z,100935.14
2019-06-08T08:54:37.706Z,100927.44
2019-06-08T08:57:45.241Z,100931.81
2019-06-08T09:00:54.193Z,100941.87
2019-06-08T09:04:13.077Z,100940.44
2019-06-08T09:07:31.869Z,100956.39
2019-06-08T09:10:52.304Z,100958.29
2019-06-08T09:14:14.160Z,100961.56
2019-06-08T09:17:31.830Z,100963.72
2019-06-08T09:20:39.193Z,100977.78
2019-06-08T09:24:04.110Z,100982.86
2019-06-08T09:27:11.728Z,100988.73
2019-06-08T09:30:19.258Z,100984.25
2019-06-08T09:33:28.638Z,100987.76
2019-06-08T09:36:48.018Z,100992.72
2019-06-08T09:39:58.109Z,100998.86
2019-06-08T09:43:10.334Z,101004.30
2019-06-08T09:46:13.840Z,101002.87
2019-06-08T09:49:38.611Z,101020.63
2019-06-08T09:52:47.893Z,101006.77
2019-06-08T09:56:09.579Z,101023.44
2019-06-08T09:59:34.130Z,101014.92
2019-06-08T10:03:02.472Z,101016.42
2019-06-08T10:06:19.727Z,101024.14
2019-06-08T10:09:28.398Z,101034.17
2019-06-08T10:12:34.529Z,101031.94
2019-06-08T10:15:41.121Z,101039.73
2019-06-08T10:18:51.176Z,101033.36
2019-06-08T10:21:56.929Z,101044.02
2019-06-08T10:25:07.887Z,101047.48
2019-06-08T10:28:15.934Z,101037.80
2019-06-08T10:31:35.683Z,101046.86
2019-06-08T10:34:30.777Z,101054.17
2019-06-08T10:37:38.385Z,101053.70
2019-06-08T10:41:07.133Z,101053.82
2019-06-08T10:44:22.185Z,101052.41
2019-06-08T10:47:48.025Z,101077.95
2019-06-08T10:50:57.997Z,101065.52
2019-06-08T10:54:04.478Z,101083.79
2019-06-08T10:57:11.807Z,101085.01
2019-06-08T11:00:24.037Z,101077.41
2019-06-08T11:03:41.191Z,101082.30
2019-06-08T11:06:47.848Z,101089.81
2019-06-08T11:09:59.806Z,101090.87
2019-06-08T11:13:24.976Z,101089.22
2019-06-08T11:16:44.293Z,101101.68
2019-06-08T11:20:04.798Z,101101.56
2019-06-08T11:23:23.972Z,101099.16
2019-06-08T11:26:31.251Z,101113.39
2019-06-08T11:29:50.465Z,101111.31
2019-06-08T11:32:57.895Z,101113.50
2019-06-08T11:36:18.955Z,101114.69
2019-06-08T11:39:25.801Z,101132.70
2019-06-08T11:42:45.000Z,101138.05
2019-06-08T11:45:52.203Z,101137.87
2019-06-08T11:49:01.195Z,101136.81
2019-06-08T11:52:09.069Z,101144.06
2019-06-08T11:55:18.111Z,101147.26
2019-06-08T11:58:25.531Z,101141.83
2019-06-08T12:01:32.864Z,101147.62
2019-06-08T12:04:40.222Z,101144.85
2019-06-08T12:07:48.107Z,101151.98
2019-06-08T12:10:53.892Z,101148.08
2019-06-08T12:14:01.236Z,101153.16
2019-06-08T12:17:12.469Z,101163.22
2019-06-08T12:20:20.654Z,101157.47
2019-06-08T12:23:26.476Z,101161.19
2019-06-08T12:26:33.741Z,101163.32
2019-06-08T12:29:41.150Z,101162.27
2019-06-08T12:33:00.770Z,101175.78
2019-06-08T12:36:11.870Z,101179.20
2019-06-08T12:39:28.760Z,101178.54
2019-06-08T12:42:38.115Z,101173.09
2019-06-08T12:45:58.043Z,101166.04
2019-06-08T12:49:05.379Z,101171.12
2019-06-08T12:52:14.211Z,101150.91
2019-06-08T12:55:25.082Z,101163.56
2019-06-08T12:58:42.720Z,101161.14
2019-06-08T13:02:01.370Z,101158.89
2019-06-08T13:05:12.525Z,101156.88
2019-06-08T13:08:35.067Z,101162.23
2019-06-08T13:11:56.376Z,101166.51
2019-06-08T13:15:22.038Z,101156.45
2019-06-08T13:18:29.355Z,101186.05
2019-06-08T13:21:38.441Z,101180.98
2019-06-08T13:24:47.778Z,101171.86
2019-06-08T13:28:12.259Z,101190.09
2019-06-08T13:31:41.141Z,101182.50
2019-06-08T13:35:04.776Z,101189.84
2019-06-08T13:38:12.594Z,101181.80
2019-06-08T13:41:24.044Z,101183.23
2019-06-08T13:44:28.007Z,101184.41
2019-06-08T13:47:52.807Z,101187.72
2019-06-08T13:50:59.218Z,101183.34
2019-06-08T13:54:08.524Z,101190.33
2019-06-08T13:57:21.873Z,101180.74
2019-06-08T14:00:47.666Z,101185.48
2019-06-08T14:04:12.470Z,101197.80
2019-06-08T14:07:34.494Z,101190.78
2019-06-08T14:10:52.166Z,101199.08
2019-06-08T14:14:11.371Z,101197.07
2019-06-08T14:17:20.371Z,101196.79
2019-06-08T14:20:33.688Z,101204.95
2019-06-08T14:23:38.635Z,101206.73
2019-06-08T14:26:44.959Z,101203.86
2019-06-08T14:30:31.058Z,101194.64
2019-06-08T14:34:00.609Z,101200.52
2019-06-08T14:37:08.643Z,101203.48
2019-06-08T14:40:31.563Z,101200.78
2019-06-08T14:43:50.787Z,101215.57
2019-06-08T14:46:59.946Z,101216.84
2019-06-08T14:50:07.967Z,101209.51
2019-06-08T14:53:15.548Z,101214.47
2019-06-08T14:56:22.983Z,101217.08
2019-06-08T14:59:31.743Z,101212.58
2019-06-08T15:02:39.263Z,101211.75
2019-06-08T15:05:49.443Z,101215.66
2019-06-08T15:09:13.337Z,101211.43
2019-06-08T15:12:21.443Z,101212.38
2019-06-08T15:15:31.787Z,101207.67
2019-06-08T15:18:38.515Z,101224.86
2019-06-08T15:21:48.298Z,101215.03
2019-06-08T15:24:54.939Z,101218.36
2019-06-08T15:28:02.372Z,101223.23
2019-06-08T15:31:09.743Z,101225.83
2019-06-08T15:34:17.801Z,101229.41
2019-06-08T15:37:25.169Z,101228.69
2019-06-08T15:40:32.483Z,101223.00
2019-06-08T15:43:40.702Z,101228.92
2019-06-08T15:47:00.420Z,101231.89
2019-06-08T15:50:30.131Z,101235.55
2019-06-08T15:53:37.892Z,101242.55
2019-06-08T15:56:51.403Z,101236.24
2019-06-08T16:00:10.132Z,101243.50
2019-06-08T16:03:17.238Z,101248.20
2019-06-08T16:06:25.771Z,101244.89
2019-06-08T16:09:34.266Z,101253.66
2019-06-08T16:12:42.129Z,101257.91
2019-06-08T16:15:49.474Z,101264.78
2019-06-08T16:19:08.811Z,101263.84
2019-06-08T16:22:15.245Z,101257.30
2019-06-08T16:25:22.628Z,101262.62
2019-06-08T16:28:29.988Z,101255.50
2019-06-08T16:31:37.339Z,101260.08
2019-06-08T16:34:44.583Z,101259.97
2019-06-08T16:37:51.876Z,101256.77
2019-06-08T16:40:59.088Z,101256.41
2019-06-08T16:44:24.368Z,101258.42
2019-06-08T16:47:43.913Z,101257.36
2019-06-08T16:50:51.343Z,101260.75
2019-06-08T16:53:58.637Z,101263.24
2019-06-08T16:57:10.730Z,101256.14
2019-06-08T17:00:30.350Z,101265.95
2019-06-08T17:03:22.739Z,101270.06
2019-06-08T17:07:35.909Z,101267.80
2019-06-08T17:11:54.508Z,101293.38
2019-06-08T17:19:06.811Z,101303.56
2019-06-08T17:22:14.213Z,101295.76
2019-06-08T17:25:21.592Z,101293.63
2019-06-08T17:28:29.021Z,101292.44
2019-06-08T17:31:37.219Z,101295.63
2019-06-08T17:34:44.643Z,101291.95
2019-06-08T17:37:51.312Z,101291.71
2019-06-08T17:40:57.838Z,101296.63
2019-06-08T17:44:04.520Z,101301.95
2019-06-08T17:47:11.066Z,101294.32
2019-06-08T17:50:19.552Z,101298.97
2019-06-08T17:53:35.225Z,101301.04
2019-06-08T17:56:49.818Z,101297.84
2019-06-08T17:59:58.562Z,101291.62
2019-06-08T18:03:20.598Z,101294.85
2019-06-08T18:06:30.321Z,101302.15
2019-06-08T18:09:43.865Z,101305.41
2019-06-08T18:12:52.638Z,101303.71
2019-06-08T18:16:00.179Z,101314.11
2019-06-08T18:19:08.187Z,101318.84
2019-06-08T18:22:18.413Z,101314.59
2019-06-08T18:25:29.269Z,101305.85
2019-06-08T18:28:39.566Z,101314.40
2019-06-08T18:31:48.098Z,101312.97
2019-06-08T18:34:54.523Z,101307.27
2019-06-08T18:38:01.882Z,101313.76
2019-06-08T18:55:22.248Z,101336.23
2019-06-08T19:04:41.774Z,101349.88
2019-06-08T19:15:53.028Z,101355.61
2019-06-08T19:24:29.082Z,101377.41
2019-06-08T19:28:36.185Z,101382.52
2019-06-08T19:32:18.104Z,101397.65
2019-06-08T19:48:35.027Z,101428.47
2019-06-08T19:51:27.812Z,101421.99
2019-06-08T20:43:50.308Z,101431.14
2019-06-08T20:48:18.564Z,101443.48
2019-06-08T20:51:49.220Z,101453.45
2019-06-08T20:55:17.523Z,101456.08
2019-06-08T20:59:30.126Z,101445.85
2019-06-08T21:02:38.680Z,101456.32
2019-06-08T21:10:46.011Z,101465.29
2019-06-08T21:13:57.807Z,101464.22
2019-06-08T21:19:02.701Z,101462.35
2019-06-08T21:20:47.164Z,101472.03
2019-06-08T21:28:31.146Z,101470.75
2019-06-08T21:32:08.082Z,101481.31
2019-06-08T21:35:27.026Z,101486.95
2019-06-08T21:38:34.228Z,101490.28
2019-06-08T21:41:41.617Z,101480.92
2019-06-08T21:45:02.199Z,101495.97
2019-06-08T21:48:21.771Z,101490.67
2019-06-08T22:02:03.883Z,101496.68
2019-06-08T22:05:11.491Z,101495.88
2019-06-08T22:08:18.873Z,101508.54
2019-06-08T22:11:26.387Z,101514.70
2019-06-08T22:14:33.664Z,101514.94
2019-06-08T22:17:41.051Z,101512.94
2019-06-08T22:21:08.115Z,101515.98
2019-06-08T22:24:30.027Z,101516.90
2019-06-08T22:27:38.181Z,101521.13
2019-06-08T22:30:48.071Z,101528.20
2019-06-08T22:33:55.925Z,101524.03
2019-06-08T22:37:03.255Z,101526.61
2019-06-08T22:40:10.599Z,101525.14
2019-06-08T22:43:18.978Z,101536.16
2019-06-08T22:46:26.824Z,101535.78
2019-06-08T22:49:34.270Z,101535.94
2019-06-08T22:53:20.244Z,101530.70
2019-06-08T22:56:41.797Z,101531.81
2019-06-08T23:00:16.627Z,101537.88
2019-06-08T23:03:31.274Z,101530.38
2019-06-08T23:06:42.019Z,101530.45
2019-06-08T23:10:04.174Z,101534.14
2019-06-08T23:13:17.743Z,101530.72
2019-06-08T23:16:59.575Z,101528.29
2019-06-08T23:20:18.683Z,101536.11
2019-06-08T23:23:18.529Z,101535.73
2019-06-08T23:26:27.562Z,101536.61
2019-06-08T23:29:33.641Z,101537.59
2019-06-08T23:32:40.362Z,101539.72
2019-06-08T23:36:21.692Z,101531.67
2019-06-08T23:38:55.394Z,101546.02
2019-06-08T23:42:02.053Z,101547.38
2019-06-08T23:45:10.846Z,101549.63
2019-06-08T23:48:18.370Z,101546.81
2019-06-08T23:51:27.610Z,101548.25
2019-06-08T23:54:36.973Z,101546.66
2019-06-08T23:58:03.007Z,101546.95
